createdAt,value
2024-01-06T00:01:45.117Z,6.16
2024-01-06T00:04:31.584Z,6.24
2024-01-06T00:07:18.061Z,6.17
2024-01-06T00:10:04.763Z,6.22
2024-01-06T00:12:51.301Z,6.31
2024-01-06T00:15:38.608Z,6.35
2024-01-06T00:18:20.889Z,6.43
2024-01-06T00:20:57.435Z,6.36
2024-01-06T00:23:44.104Z,6.34
2024-01-06T00:26:30.493Z,6.35
2024-01-06T00:29:16.896Z,6.24
2024-01-06T00:31:57.917Z,6.24
2024-01-06T00:34:44.417Z,6.31
2024-01-06T00:37:31.585Z,6.36
2024-01-06T00:39:58.570Z,6.38
2024-01-06T00:42:45.103Z,6.49
2024-01-06T00:45:32.315Z,6.65
2024-01-06T00:48:19.433Z,6.56
2024-01-06T00:51:06.008Z,6.56
2024-01-06T00:53:52.452Z,6.58
2024-01-06T00:56:38.963Z,6.46
2024-01-06T00:59:25.330Z,6.38
2024-01-06T01:02:11.772Z,6.40
2024-01-06T01:04:58.392Z,6.50
2024-01-06T01:07:44.858Z,6.57
2024-01-06T01:10:31.341Z,6.56
2024-01-06T01:13:17.799Z,6.48
2024-01-06T01:16:04.471Z,6.46
2024-01-06T01:21:37.441Z,6.46
2024-01-06T01:24:23.989Z,6.45
2024-01-06T01:27:10.647Z,6.50
2024-01-06T01:29:57.108Z,6.77
2024-01-06T01:32:43.663Z,6.74
2024-01-06T01:35:30.070Z,6.65
2024-01-06T01:38:16.495Z,6.57
2024-01-06T01:41:02.944Z,6.56
2024-01-06T01:43:49.365Z,6.68
2024-01-06T01:46:36.039Z,6.77
2024-01-06T01:49:22.687Z,6.57
2024-01-06T01:52:09.142Z,6.64
2024-01-06T01:54:55.608Z,6.48
2024-01-06T01:57:42.444Z,6.52
2024-01-06T02:00:29.177Z,6.50
2024-01-06T02:03:17.166Z,6.46
2024-01-06T02:06:03.883Z,6.47
2024-01-06T02:08:50.335Z,6.41
2024-01-06T02:11:36.725Z,6.35
2024-01-06T02:14:23.111Z,6.38
2024-01-06T02:17:09.573Z,6.68
2024-01-06T02:19:57.618Z,6.44
2024-01-06T02:22:44.074Z,6.31
2024-01-06T02:25:22.463Z,6.29
2024-01-06T02:27:49.235Z,6.44
2024-01-06T02:30:16.125Z,6.52
2024-01-06T02:32:42.576Z,6.45
2024-01-06T02:35:09.217Z,6.32
2024-01-06T02:37:35.667Z,6.18
2024-01-06T02:40:02.218Z,6.27
2024-01-06T02:42:28.877Z,6.25
2024-01-06T02:44:55.251Z,6.35
2024-01-06T02:47:22.225Z,6.36
2024-01-06T02:49:48.833Z,6.38
2024-01-06T02:52:15.330Z,6.35
2024-01-06T02:54:41.856Z,6.27
2024-01-06T02:57:08.237Z,6.33
2024-01-06T02:59:35.837Z,6.15
2024-01-06T03:02:03.043Z,6.20
2024-01-06T03:04:29.485Z,6.28
2024-01-06T03:06:55.910Z,6.33
2024-01-06T03:09:22.392Z,6.38
2024-01-06T03:11:48.896Z,6.28
2024-01-06T03:14:15.309Z,6.27
2024-01-06T03:16:41.667Z,6.14
2024-01-06T03:19:08.158Z,6.14
2024-01-06T03:21:34.743Z,6.21
2024-01-06T03:24:01.206Z,6.20
2024-01-06T03:26:27.694Z,6.20
2024-01-06T03:28:55.483Z,6.14
2024-01-06T03:31:23.295Z,6.09
2024-01-06T03:33:49.912Z,6.14
2024-01-06T03:36:17.871Z,6.08
2024-01-06T03:38:44.322Z,6.20
2024-01-06T03:41:10.754Z,6.10
2024-01-06T03:43:37.200Z,6.22
2024-01-06T03:46:03.743Z,6.34
2024-01-06T03:48:30.493Z,6.11
2024-01-06T03:50:56.998Z,5.89
2024-01-06T03:53:26.166Z,5.80
2024-01-06T03:55:53.262Z,5.79
2024-01-06T03:58:19.632Z,5.85
2024-01-06T04:00:46.092Z,5.96
2024-01-06T04:03:12.629Z,6.13
2024-01-06T04:05:39.092Z,6.14
2024-01-06T04:08:05.696Z,6.12
2024-01-06T04:10:32.103Z,6.04
2024-01-06T04:12:58.523Z,5.91
2024-01-06T04:15:24.988Z,5.86
2024-01-06T04:17:51.535Z,5.81
2024-01-06T04:20:17.995Z,5.90
2024-01-06T04:22:44.346Z,6.01
2024-01-06T04:25:10.740Z,5.99
2024-01-06T04:27:37.177Z,6.00
2024-01-06T04:30:04.047Z,6.05
2024-01-06T04:32:30.562Z,6.01
2024-01-06T04:34:58.180Z,6.02
2024-01-06T04:37:24.578Z,6.03
2024-01-06T04:39:51.078Z,5.83
2024-01-06T04:42:17.558Z,5.78
2024-01-06T04:44:43.950Z,5.82
2024-01-06T04:47:10.318Z,5.99
2024-01-06T04:49:36.893Z,6.02
2024-01-06T04:52:03.627Z,5.94
2024-01-06T04:54:30.051Z,6.04
2024-01-06T04:56:57.177Z,6.10
2024-01-06T04:59:23.675Z,6.05
2024-01-06T05:01:50.339Z,6.07
2024-01-06T05:04:16.804Z,6.04
2024-01-06T05:06:43.258Z,6.03
2024-01-06T05:09:09.754Z,5.82
2024-01-06T05:11:36.181Z,5.80
2024-01-06T05:14:02.596Z,5.71
2024-01-06T05:16:29.003Z,5.67
2024-01-06T05:18:55.777Z,5.81
2024-01-06T05:21:22.484Z,5.89
2024-01-06T05:23:48.922Z,5.98
2024-01-06T05:26:15.377Z,5.96
2024-01-06T05:28:41.779Z,6.05
2024-01-06T05:31:08.206Z,6.08
2024-01-06T05:33:34.726Z,6.04
2024-01-06T05:36:01.126Z,5.87
2024-01-06T05:38:27.474Z,5.88
2024-01-06T05:40:54.026Z,5.90
2024-01-06T05:43:20.416Z,5.78
2024-01-06T05:45:46.895Z,5.92
2024-01-06T05:48:13.572Z,5.77
2024-01-06T05:50:40.811Z,5.91
2024-01-06T05:53:07.792Z,5.92
2024-01-06T05:55:34.233Z,5.87
2024-01-06T05:58:01.128Z,5.93
2024-01-06T06:00:27.678Z,5.83
2024-01-06T06:02:54.262Z,5.84
2024-01-06T06:05:21.241Z,5.77
2024-01-06T06:07:47.673Z,5.79
2024-01-06T06:10:14.192Z,5.71
2024-01-06T06:12:40.800Z,5.62
2024-01-06T06:15:07.944Z,5.78
2024-01-06T06:17:34.943Z,5.88
2024-01-06T06:20:01.327Z,5.74
2024-01-06T06:22:31.164Z,5.68
2024-01-06T06:24:58.398Z,5.76
2024-01-06T06:27:25.139Z,5.77
2024-01-06T06:29:51.647Z,5.83
2024-01-06T06:32:18.041Z,5.94
2024-01-06T06:34:44.546Z,5.87
2024-01-06T06:37:11.202Z,5.83
2024-01-06T06:39:37.838Z,5.89
2024-01-06T06:42:04.917Z,5.88
2024-01-06T06:44:31.470Z,5.81
2024-01-06T06:46:57.992Z,5.82
2024-01-06T06:49:24.450Z,5.77
2024-01-06T06:51:51.270Z,5.89
2024-01-06T06:54:17.821Z,5.75
2024-01-06T06:56:44.372Z,5.76
2024-01-06T06:59:11.125Z,5.82
2024-01-06T07:01:38.695Z,5.78
2024-01-06T07:04:05.418Z,5.71
2024-01-06T07:06:31.989Z,5.80
2024-01-06T07:08:58.410Z,5.90
2024-01-06T07:11:24.783Z,5.87
2024-01-06T07:13:51.498Z,5.80
2024-01-06T07:16:19.586Z,5.71
2024-01-06T07:18:47.113Z,5.73
2024-01-06T07:21:14.130Z,5.72
2024-01-06T07:23:40.830Z,5.73
2024-01-06T07:26:09.023Z,5.68
2024-01-06T07:28:35.399Z,5.63
2024-01-06T07:31:02.372Z,5.63
2024-01-06T07:33:28.933Z,5.70
2024-01-06T07:35:55.365Z,5.71
2024-01-06T07:38:21.709Z,5.66
2024-01-06T07:40:48.062Z,5.63
2024-01-06T07:43:16.234Z,5.62
2024-01-06T07:45:42.716Z,5.70
2024-01-06T07:48:09.289Z,5.67
2024-01-06T07:50:35.859Z,5.61
2024-01-06T07:53:02.798Z,5.53
2024-01-06T07:55:29.869Z,5.39
2024-01-06T07:57:56.428Z,5.37
2024-01-06T08:00:23.138Z,5.35
2024-01-06T08:02:49.635Z,5.37
2024-01-06T08:05:16.025Z,5.46
2024-01-06T08:07:42.408Z,5.35
2024-01-06T08:10:10.042Z,5.33
2024-01-06T08:12:36.578Z,5.39
2024-01-06T08:15:03.283Z,5.31
2024-01-06T08:17:29.828Z,5.31
2024-01-06T08:19:56.276Z,5.07
2024-01-06T08:22:22.701Z,5.14
2024-01-06T08:24:49.177Z,5.11
2024-01-06T08:27:15.619Z,5.01
2024-01-06T08:29:42.127Z,4.90
2024-01-06T08:32:08.743Z,4.98
2024-01-06T08:34:35.207Z,4.91
2024-01-06T08:37:01.659Z,4.90
2024-01-06T08:39:28.202Z,4.92
2024-01-06T08:41:54.630Z,4.96
2024-01-06T08:44:20.997Z,4.99
2024-01-06T08:46:47.421Z,5.09
2024-01-06T08:49:13.857Z,5.10
2024-01-06T08:51:40.317Z,4.88
2024-01-06T08:54:06.962Z,4.93
2024-01-06T08:56:35.043Z,4.86
2024-01-06T08:59:02.815Z,4.75
2024-01-06T09:01:29.346Z,4.80
2024-01-06T09:03:55.990Z,4.85
2024-01-06T09:06:22.598Z,4.86
2024-01-06T09:08:49.001Z,4.95
2024-01-06T09:11:15.428Z,5.02
2024-01-06T09:13:41.942Z,4.98
2024-01-06T09:16:08.618Z,5.03
2024-01-06T09:18:35.258Z,5.12
2024-01-06T09:21:01.873Z,5.08
2024-01-06T09:23:28.458Z,5.36
2024-01-06T09:25:54.992Z,5.46
2024-01-06T09:28:24.154Z,5.44
2024-01-06T09:30:51.927Z,5.39
2024-01-06T09:33:18.774Z,5.40
2024-01-06T09:35:45.689Z,5.48
2024-01-06T09:38:12.093Z,5.44
2024-01-06T09:40:44.591Z,5.40
2024-01-06T09:43:14.094Z,5.42
2024-01-06T09:45:40.881Z,5.30
2024-01-06T09:48:18.121Z,5.31
2024-01-06T09:50:48.039Z,5.42
2024-01-06T09:53:15.018Z,5.39
2024-01-06T09:55:41.453Z,5.53
2024-01-06T09:58:09.983Z,5.49
2024-01-06T10:00:36.824Z,5.44
2024-01-06T10:03:03.424Z,5.33
2024-01-06T10:05:29.851Z,5.27
2024-01-06T10:07:56.285Z,5.18
2024-01-06T10:10:23.700Z,5.19
2024-01-06T10:12:54.211Z,5.08
2024-01-06T10:15:20.962Z,5.01
2024-01-06T10:17:47.554Z,5.14
2024-01-06T10:20:14.844Z,5.19
2024-01-06T10:22:42.525Z,5.04
2024-01-06T10:25:10.206Z,5.16
2024-01-06T10:27:38.257Z,4.91
2024-01-06T10:30:05.894Z,4.95
2024-01-06T10:32:33.368Z,5.05
2024-01-06T10:35:02.206Z,4.98
2024-01-06T10:37:31.691Z,4.92
2024-01-06T10:40:12.339Z,4.86
2024-01-06T10:42:40.753Z,4.87
2024-01-06T10:45:11.253Z,4.79
2024-01-06T10:47:39.142Z,4.80
2024-01-06T10:50:06.497Z,4.93
2024-01-06T10:52:33.253Z,4.84
2024-01-06T10:54:59.909Z,4.96
2024-01-06T10:57:29.130Z,5.01
2024-01-06T10:59:55.728Z,4.97
2024-01-06T11:02:22.983Z,5.12
2024-01-06T11:04:49.849Z,5.04
2024-01-06T11:07:18.240Z,5.23
2024-01-06T11:09:56.667Z,5.33
2024-01-06T11:12:26.248Z,5.31
2024-01-06T11:14:53.438Z,5.51
2024-01-06T11:17:55.686Z,5.35
2024-01-06T11:20:28.153Z,5.18
2024-01-06T11:22:55.300Z,5.09
2024-01-06T11:25:23.311Z,5.08
2024-01-06T11:27:51.257Z,5.25
2024-01-06T11:30:23.197Z,5.11
2024-01-06T11:32:53.690Z,5.07
2024-01-06T11:35:22.304Z,5.07
2024-01-06T11:37:48.672Z,4.97
2024-01-06T11:40:27.636Z,5.00
2024-01-06T11:43:08.972Z,4.94
2024-01-06T11:45:36.630Z,4.74
2024-01-06T11:48:05.286Z,4.79
2024-01-06T11:50:34.027Z,4.80
2024-01-06T11:53:01.027Z,4.85
2024-01-06T11:55:33.209Z,4.95
2024-01-06T11:58:04.792Z,4.98
2024-01-06T12:00:32.076Z,4.97
2024-01-06T12:02:59.842Z,5.06
2024-01-06T12:05:27.752Z,5.06
2024-01-06T12:07:59.177Z,4.99
2024-01-06T12:10:27.858Z,4.97
2024-01-06T12:13:00.512Z,4.95
2024-01-06T12:15:28.270Z,4.96
2024-01-06T12:17:54.764Z,4.89
2024-01-06T12:20:23.118Z,4.84
2024-01-06T12:22:49.564Z,4.81
2024-01-06T12:25:16.609Z,4.67
2024-01-06T12:27:44.311Z,4.65
2024-01-06T12:30:17.829Z,4.68
2024-01-06T12:32:46.509Z,4.56
2024-01-06T12:35:13.220Z,4.63
2024-01-06T12:37:42.933Z,4.54
2024-01-06T12:40:10.200Z,4.61
2024-01-06T12:42:37.445Z,4.59
2024-01-06T12:45:04.315Z,4.62
2024-01-06T12:47:30.896Z,4.60
2024-01-06T12:49:57.377Z,4.54
2024-01-06T12:52:23.784Z,4.49
2024-01-06T12:54:50.244Z,4.43
2024-01-06T12:57:16.996Z,4.56
2024-01-06T12:59:44.077Z,4.52
2024-01-06T13:02:10.768Z,4.44
2024-01-06T13:04:37.197Z,4.48
2024-01-06T13:07:04.034Z,4.46
2024-01-06T13:09:30.713Z,4.52
2024-01-06T13:12:01.251Z,4.46
2024-01-06T13:14:28.551Z,4.46
2024-01-06T13:16:54.964Z,4.46
2024-01-06T13:19:21.570Z,4.45
2024-01-06T13:21:48.450Z,4.48
2024-01-06T13:24:14.936Z,4.48
2024-01-06T13:26:41.412Z,4.54
2024-01-06T13:29:07.855Z,4.51
2024-01-06T13:31:34.509Z,4.54
2024-01-06T13:34:01.235Z,4.37
2024-01-06T13:36:27.650Z,4.36
2024-01-06T13:38:54.210Z,4.31
2024-01-06T13:41:20.797Z,4.37
2024-01-06T13:43:47.158Z,4.46
2024-01-06T13:46:15.063Z,4.49
2024-01-06T13:48:42.548Z,4.50
2024-01-06T13:51:09.613Z,4.37
2024-01-06T13:53:36.062Z,4.41
2024-01-06T13:56:03.851Z,4.37
2024-01-06T13:58:30.356Z,4.19
2024-01-06T14:00:56.875Z,4.25
2024-01-06T14:03:23.569Z,4.29
2024-01-06T14:05:52.487Z,4.38
2024-01-06T14:08:18.988Z,4.39
2024-01-06T14:10:45.928Z,4.32
2024-01-06T14:13:12.282Z,4.31
2024-01-06T14:15:39.257Z,4.33
2024-01-06T14:18:05.853Z,4.37
2024-01-06T14:20:33.002Z,4.43
2024-01-06T14:22:59.933Z,4.33
2024-01-06T14:25:26.331Z,4.36
2024-01-06T14:27:53.701Z,4.36
2024-01-06T14:30:21.159Z,4.38
2024-01-06T14:32:47.790Z,4.37
2024-01-06T14:35:15.449Z,4.36
2024-01-06T14:37:41.967Z,4.44
2024-01-06T14:40:09.209Z,4.41
2024-01-06T14:42:37.364Z,4.38
2024-01-06T14:45:04.560Z,4.31
2024-01-06T14:47:31.037Z,4.34
2024-01-06T14:49:57.574Z,4.23
2024-01-06T14:52:24.048Z,4.16
2024-01-06T14:54:50.779Z,4.22
2024-01-06T14:57:17.495Z,4.18
2024-01-06T14:59:44.303Z,4.17
2024-01-06T15:02:10.715Z,4.19
2024-01-06T15:07:35.435Z,4.17
2024-01-06T15:10:04.410Z,4.05
2024-01-06T15:12:31.738Z,4.09
2024-01-06T15:14:59.263Z,4.00
2024-01-06T15:17:26.035Z,3.91
2024-01-06T15:19:52.924Z,3.87
2024-01-06T15:22:19.474Z,3.92
2024-01-06T15:24:57.029Z,3.93
2024-01-06T15:27:24.975Z,3.88
2024-01-06T15:29:51.424Z,3.82
2024-01-06T15:32:17.920Z,3.81
2024-01-06T15:34:45.047Z,3.85
2024-01-06T15:37:11.486Z,3.78
2024-01-06T15:39:38.041Z,3.64
2024-01-06T15:42:04.837Z,3.63
2024-01-06T15:44:33.308Z,3.73
2024-01-06T15:46:59.776Z,3.60
2024-01-06T15:49:28.170Z,3.72
2024-01-06T15:51:54.719Z,3.67
2024-01-06T15:54:23.881Z,3.64
2024-01-06T15:56:50.802Z,3.69
2024-01-06T15:59:17.207Z,3.62
2024-01-06T16:01:43.738Z,3.68
2024-01-06T16:04:10.306Z,3.58
2024-01-06T16:06:37.293Z,3.56
2024-01-06T16:09:06.408Z,3.52
2024-01-06T16:11:33.000Z,3.51
2024-01-06T16:13:59.406Z,3.44
2024-01-06T16:16:29.193Z,3.38
2024-01-06T16:18:55.791Z,3.43
2024-01-06T16:21:24.107Z,3.30
2024-01-06T16:23:51.367Z,3.31
2024-01-06T16:26:18.119Z,3.27
2024-01-06T16:28:45.013Z,3.28
2024-01-06T16:31:11.557Z,3.34
2024-01-06T16:33:38.350Z,3.25
2024-01-06T16:36:09.797Z,3.35
2024-01-06T16:38:36.431Z,3.31
2024-01-06T16:41:03.580Z,3.28
2024-01-06T16:43:31.080Z,3.35
2024-01-06T16:45:57.585Z,3.29
2024-01-06T16:48:24.330Z,3.20
2024-01-06T16:50:51.972Z,3.25
2024-01-06T16:53:18.440Z,3.21
2024-01-06T16:55:44.897Z,3.13
2024-01-06T16:58:12.095Z,3.23
2024-01-06T17:00:39.937Z,3.24
2024-01-06T17:03:06.404Z,3.18
2024-01-06T17:05:32.899Z,3.06
2024-01-06T17:07:59.326Z,3.17
2024-01-06T17:10:25.859Z,3.08
2024-01-06T17:12:52.354Z,3.14
2024-01-06T17:15:20.274Z,3.15
2024-01-06T17:17:47.729Z,3.11
2024-01-06T17:20:14.208Z,3.14
2024-01-06T17:22:40.724Z,3.14
2024-01-06T17:25:14.681Z,3.01
2024-01-06T17:27:42.799Z,3.00
2024-01-06T17:30:12.693Z,2.93
2024-01-06T17:32:42.083Z,2.95
2024-01-06T17:35:08.962Z,2.88
2024-01-06T17:37:35.399Z,2.90
2024-01-06T17:40:02.400Z,2.85
2024-01-06T17:42:28.915Z,2.82
2024-01-06T17:44:56.465Z,2.90
2024-01-06T17:47:22.862Z,2.79
2024-01-06T17:49:50.033Z,2.90
2024-01-06T17:52:16.704Z,2.78
2024-01-06T17:54:43.370Z,2.77
2024-01-06T17:57:11.103Z,2.70
2024-01-06T17:59:37.542Z,2.72
2024-01-06T18:02:04.227Z,2.67
2024-01-06T18:04:30.767Z,2.61
2024-01-06T18:06:57.400Z,2.58
2024-01-06T18:09:24.527Z,2.64
2024-01-06T18:11:51.028Z,2.65
2024-01-06T18:14:17.573Z,2.70
2024-01-06T18:16:43.982Z,2.60
2024-01-06T18:19:10.522Z,2.63
2024-01-06T18:21:37.136Z,2.72
2024-01-06T18:24:05.049Z,2.75
2024-01-06T18:26:31.454Z,2.79
2024-01-06T18:28:57.865Z,2.71
2024-01-06T18:31:24.417Z,2.67
2024-01-06T18:33:51.031Z,2.74
2024-01-06T18:36:17.573Z,2.62
2024-01-06T18:38:43.993Z,2.70
2024-01-06T18:41:10.362Z,2.73
2024-01-06T18:43:36.809Z,2.74
2024-01-06T18:46:03.468Z,2.72
2024-01-06T18:48:30.075Z,2.68
2024-01-06T18:50:56.491Z,2.68
2024-01-06T18:53:22.861Z,2.60
2024-01-06T18:55:49.231Z,2.66
2024-01-06T18:58:16.263Z,2.73
2024-01-06T19:00:42.934Z,2.72
2024-01-06T19:03:09.908Z,2.63
2024-01-06T19:05:37.000Z,2.70
2024-01-06T19:08:03.450Z,2.51
2024-01-06T19:10:30.473Z,2.54
2024-01-06T19:12:58.198Z,2.60
2024-01-06T19:15:24.986Z,2.45
2024-01-06T19:17:51.450Z,2.50
2024-01-06T19:20:18.337Z,2.57
2024-01-06T19:22:57.628Z,2.51
2024-01-06T19:25:31.164Z,2.39
2024-01-06T19:27:58.508Z,2.55
2024-01-06T19:30:25.026Z,2.44
2024-01-06T19:32:51.540Z,2.47
2024-01-06T19:35:18.024Z,2.52
2024-01-06T19:37:44.379Z,2.52
2024-01-06T19:40:11.352Z,2.51
2024-01-06T19:42:40.742Z,2.43
2024-01-06T19:45:07.286Z,2.38
2024-01-06T19:47:35.784Z,2.46
2024-01-06T19:50:04.485Z,2.36
2024-01-06T19:52:31.004Z,2.45
2024-01-06T19:54:58.002Z,2.48
2024-01-06T19:57:24.465Z,2.49
2024-01-06T19:59:52.454Z,2.44
2024-01-06T20:02:19.064Z,2.50
2024-01-06T20:04:45.760Z,2.53
2024-01-06T20:07:12.492Z,2.56
2024-01-06T20:09:38.965Z,2.47
2024-01-06T20:12:05.673Z,2.51
2024-01-06T20:14:32.060Z,2.46
2024-01-06T20:16:58.527Z,2.39
2024-01-06T20:19:25.325Z,2.38
2024-01-06T20:21:51.968Z,2.34
2024-01-06T20:24:18.491Z,2.28
2024-01-06T20:26:44.926Z,2.43
2024-01-06T20:29:12.594Z,2.29
2024-01-06T20:31:39.298Z,2.36
2024-01-06T20:34:06.045Z,2.36
2024-01-06T20:36:32.581Z,2.45
2024-01-06T20:38:59.051Z,2.46
2024-01-06T20:41:26.530Z,2.46
2024-01-06T20:43:52.941Z,2.48
2024-01-06T20:46:23.152Z,2.43
2024-01-06T20:48:49.602Z,2.44
2024-01-06T20:51:19.196Z,2.49
2024-01-06T20:53:46.121Z,2.40
2024-01-06T20:56:14.350Z,2.37
2024-01-06T20:58:41.139Z,2.26
2024-01-06T21:01:08.429Z,2.24
2024-01-06T21:03:34.924Z,2.23
2024-01-06T21:06:01.540Z,2.29
2024-01-06T21:08:27.974Z,2.25
2024-01-06T21:10:54.347Z,2.28
2024-01-06T21:13:20.858Z,2.32
2024-01-06T21:15:47.366Z,2.30
2024-01-06T21:18:13.790Z,2.26
2024-01-06T21:20:40.182Z,2.24
2024-01-06T21:23:06.583Z,2.16
2024-01-06T21:25:32.991Z,2.12
2024-01-06T21:27:59.509Z,2.24
2024-01-06T21:30:27.213Z,2.23
2024-01-06T21:33:01.830Z,2.25
2024-01-06T21:35:30.842Z,2.27
2024-01-06T21:37:58.392Z,2.29
2024-01-06T21:40:27.977Z,2.27
2024-01-06T21:42:55.517Z,2.22
2024-01-06T21:45:22.174Z,2.26
2024-01-06T21:47:48.909Z,2.36
2024-01-06T21:50:15.484Z,2.25
2024-01-06T21:52:43.424Z,2.31
2024-01-06T21:55:10.409Z,2.22
2024-01-06T21:57:36.986Z,2.23
2024-01-06T22:00:07.627Z,2.22
2024-01-06T22:02:35.299Z,2.24
2024-01-06T22:05:01.724Z,2.21
2024-01-06T22:07:28.181Z,2.22
2024-01-06T22:09:54.665Z,2.20
2024-01-06T22:12:21.355Z,2.18
2024-01-06T22:14:47.935Z,2.13
2024-01-06T22:17:15.098Z,2.15
2024-01-06T22:19:42.116Z,2.13
2024-01-06T22:22:08.698Z,2.18
2024-01-06T22:24:35.167Z,2.03
2024-01-06T22:27:01.738Z,2.05
2024-01-06T22:29:28.126Z,2.11
2024-01-06T22:31:54.578Z,2.07
2024-01-06T22:34:21.103Z,2.19
2024-01-06T22:36:48.236Z,2.15
2024-01-06T22:39:16.416Z,2.08
2024-01-06T22:41:46.342Z,2.08
2024-01-06T22:44:12.746Z,2.05
2024-01-06T22:46:39.100Z,2.00
2024-01-06T22:49:05.706Z,1.98
2024-01-06T22:51:32.232Z,1.96
2024-01-06T22:53:58.671Z,2.01
2024-01-06T22:56:25.574Z,2.03
2024-01-06T22:58:51.987Z,2.02
2024-01-06T23:01:18.483Z,2.07
2024-01-06T23:03:45.027Z,2.02
2024-01-06T23:06:11.568Z,2.09
2024-01-06T23:08:37.955Z,2.06
2024-01-06T23:11:12.998Z,2.13
2024-01-06T23:13:39.429Z,2.05
2024-01-06T23:16:06.173Z,2.09
2024-01-06T23:18:32.859Z,2.05
2024-01-06T23:21:00.239Z,2.06
2024-01-06T23:23:26.704Z,2.01
2024-01-06T23:25:53.356Z,2.02
2024-01-06T23:28:19.736Z,2.00
2024-01-06T23:30:48.650Z,1.96
2024-01-06T23:33:15.460Z,1.97
2024-01-06T23:35:42.000Z,1.95
2024-01-06T23:38:08.552Z,1.92
2024-01-06T23:40:37.211Z,1.97
2024-01-06T23:43:07.391Z,1.99
2024-01-06T23:45:34.762Z,2.08
2024-01-06T23:48:01.261Z,2.02
2024-01-06T23:50:27.631Z,1.98
2024-01-06T23:52:54.034Z,2.05
2024-01-06T23:55:20.408Z,2.01
2024-01-06T23:57:47.938Z,2.03
